sensor_id;sensor_type;location;lat;lon;timestamp;P1;durP1;ratioP1;P2;durP2;ratioP2
25731;SDS011;13585;50.864;4.406;2023-06-22T00:01:50;3.20;;;2.38;;
25731;SDS011;13585;50.864;4.406;2023-06-22T00:04:16;2.55;;;1.92;;
25731;SDS011;13585;50.864;4.406;2023-06-22T00:06:41;5.50;;;2.42;;
25731;SDS011;13585;50.864;4.406;2023-06-22T00:09:07;3.72;;;2.30;;
25731;SDS011;13585;50.864;4.406;2023-06-22T00:11:33;3.60;;;2.30;;
25731;SDS011;13585;50.864;4.406;2023-06-22T00:13:59;3.50;;;2.00;;
25731;SDS011;13585;50.864;4.406;2023-06-22T00:16:25;3.45;;;2.10;;
25731;SDS011;13585;50.864;4.406;2023-06-22T00:18:51;3.35;;;2.10;;
25731;SDS011;13585;50.864;4.406;2023-06-22T00:21:16;2.70;;;2.10;;
25731;SDS011;13585;50.864;4.406;2023-06-22T00:23:44;3.45;;;2.40;;
25731;SDS011;13585;50.864;4.406;2023-06-22T00:26:09;2.78;;;1.80;;
25731;SDS011;13585;50.864;4.406;2023-06-22T00:28:36;2.67;;;1.90;;
25731;SDS011;13585;50.864;4.406;2023-06-22T00:31:02;3.00;;;2.03;;
25731;SDS011;13585;50.864;4.406;2023-06-22T00:33:27;4.63;;;2.40;;
25731;SDS011;13585;50.864;4.406;2023-06-22T00:35:53;3.20;;;2.13;;
25731;SDS011;13585;50.864;4.406;2023-06-22T00:38:19;2.88;;;2.10;;
25731;SDS011;13585;50.864;4.406;2023-06-22T00:40:45;2.75;;;2.10;;
25731;SDS011;13585;50.864;4.406;2023-06-22T00:43:11;2.40;;;1.80;;
25731;SDS011;13585;50.864;4.406;2023-06-22T00:45:37;3.15;;;2.05;;
25731;SDS011;13585;50.864;4.406;2023-06-22T00:48:03;3.70;;;2.47;;
25731;SDS011;13585;50.864;4.406;2023-06-22T00:50:30;3.90;;;2.10;;
25731;SDS011;13585;50.864;4.406;2023-06-22T00:53:09;3.25;;;2.03;;
25731;SDS011;13585;50.864;4.406;2023-06-22T00:55:36;2.50;;;1.60;;
25731;SDS011;13585;50.864;4.406;2023-06-22T00:58:03;3.85;;;1.98;;
25731;SDS011;13585;50.864;4.406;2023-06-22T01:00:33;3.67;;;2.00;;
25731;SDS011;13585;50.864;4.406;2023-06-22T01:02:59;2.83;;;2.00;;
25731;SDS011;13585;50.864;4.406;2023-06-22T01:05:24;2.80;;;2.22;;
25731;SDS011;13585;50.864;4.406;2023-06-22T01:08:02;3.83;;;2.00;;
25731;SDS011;13585;50.864;4.406;2023-06-22T01:10:45;4.05;;;2.20;;
25731;SDS011;13585;50.864;4.406;2023-06-22T01:13:41;3.90;;;2.10;;
25731;SDS011;13585;50.864;4.406;2023-06-22T01:16:16;4.63;;;2.33;;
25731;SDS011;13585;50.864;4.406;2023-06-22T01:18:49;3.88;;;2.30;;
25731;SDS011;13585;50.864;4.406;2023-06-22T01:21:19;2.58;;;2.38;;
25731;SDS011;13585;50.864;4.406;2023-06-22T01:24:10;3.42;;;2.30;;
25731;SDS011;13585;50.864;4.406;2023-06-22T01:29:34;3.33;;;1.80;;
25731;SDS011;13585;50.864;4.406;2023-06-22T01:32:03;4.43;;;2.20;;
25731;SDS011;13585;50.864;4.406;2023-06-22T01:34:31;3.28;;;2.03;;
25731;SDS011;13585;50.864;4.406;2023-06-22T01:36:57;2.15;;;1.60;;
25731;SDS011;13585;50.864;4.406;2023-06-22T01:39:24;3.08;;;1.88;;
25731;SDS011;13585;50.864;4.406;2023-06-22T01:41:51;4.65;;;2.10;;
25731;SDS011;13585;50.864;4.406;2023-06-22T01:44:19;2.65;;;1.92;;
25731;SDS011;13585;50.864;4.406;2023-06-22T01:46:46;2.20;;;2.00;;
25731;SDS011;13585;50.864;4.406;2023-06-22T01:49:14;3.83;;;1.90;;
25731;SDS011;13585;50.864;4.406;2023-06-22T01:51:40;2.85;;;2.10;;
25731;SDS011;13585;50.864;4.406;2023-06-22T01:54:06;2.50;;;1.67;;
25731;SDS011;13585;50.864;4.406;2023-06-22T01:56:33;3.13;;;1.88;;
25731;SDS011;13585;50.864;4.406;2023-06-22T01:59:09;4.63;;;2.00;;
25731;SDS011;13585;50.864;4.406;2023-06-22T02:01:43;2.88;;;1.98;;
25731;SDS011;13585;50.864;4.406;2023-06-22T02:04:19;3.05;;;2.00;;
25731;SDS011;13585;50.864;4.406;2023-06-22T02:06:49;2.88;;;2.10;;
25731;SDS011;13585;50.864;4.406;2023-06-22T02:09:19;2.63;;;1.85;;
25731;SDS011;13585;50.864;4.406;2023-06-22T02:11:47;3.38;;;2.00;;
25731;SDS011;13585;50.864;4.406;2023-06-22T02:14:13;3.47;;;1.80;;
25731;SDS011;13585;50.864;4.406;2023-06-22T02:16:40;2.05;;;1.80;;
25731;SDS011;13585;50.864;4.406;2023-06-22T02:19:07;2.65;;;1.90;;
25731;SDS011;13585;50.864;4.406;2023-06-22T02:21:33;2.38;;;1.95;;
25731;SDS011;13585;50.864;4.406;2023-06-22T02:23:59;2.28;;;1.70;;
25731;SDS011;13585;50.864;4.406;2023-06-22T02:26:24;2.83;;;2.13;;
25731;SDS011;13585;50.864;4.406;2023-06-22T02:28:51;2.65;;;1.90;;
25731;SDS011;13585;50.864;4.406;2023-06-22T02:31:17;3.75;;;2.13;;
25731;SDS011;13585;50.864;4.406;2023-06-22T02:33:43;3.92;;;2.03;;
25731;SDS011;13585;50.864;4.406;2023-06-22T02:36:10;2.88;;;1.88;;
25731;SDS011;13585;50.864;4.406;2023-06-22T02:38:38;2.90;;;2.10;;
25731;SDS011;13585;50.864;4.406;2023-06-22T02:41:13;2.78;;;1.77;;
25731;SDS011;13585;50.864;4.406;2023-06-22T02:43:42;4.28;;;1.90;;
25731;SDS011;13585;50.864;4.406;2023-06-22T02:46:09;2.85;;;1.85;;
25731;SDS011;13585;50.864;4.406;2023-06-22T02:48:34;2.47;;;2.13;;
25731;SDS011;13585;50.864;4.406;2023-06-22T02:51:00;3.25;;;2.10;;
25731;SDS011;13585;50.864;4.406;2023-06-22T02:53:26;2.47;;;1.90;;
25731;SDS011;13585;50.864;4.406;2023-06-22T02:55:51;4.43;;;2.08;;
25731;SDS011;13585;50.864;4.406;2023-06-22T02:58:17;3.20;;;2.10;;
25731;SDS011;13585;50.864;4.406;2023-06-22T03:00:42;3.13;;;1.98;;
25731;SDS011;13585;50.864;4.406;2023-06-22T03:03:08;3.38;;;2.05;;
25731;SDS011;13585;50.864;4.406;2023-06-22T03:05:33;2.85;;;2.08;;
25731;SDS011;13585;50.864;4.406;2023-06-22T03:08:00;7.78;;;2.30;;
25731;SDS011;13585;50.864;4.406;2023-06-22T03:10:25;3.30;;;1.95;;
25731;SDS011;13585;50.864;4.406;2023-06-22T03:12:54;2.70;;;2.25;;
25731;SDS011;13585;50.864;4.406;2023-06-22T03:15:20;2.38;;;1.73;;
25731;SDS011;13585;50.864;4.406;2023-06-22T03:17:45;1.80;;;1.50;;
25731;SDS011;13585;50.864;4.406;2023-06-22T03:20:12;3.30;;;2.00;;
25731;SDS011;13585;50.864;4.406;2023-06-22T03:22:37;2.85;;;2.00;;
25731;SDS011;13585;50.864;4.406;2023-06-22T03:25:04;2.88;;;2.10;;
25731;SDS011;13585;50.864;4.406;2023-06-22T03:27:38;2.30;;;1.98;;
25731;SDS011;13585;50.864;4.406;2023-06-22T03:30:05;2.78;;;1.80;;
25731;SDS011;13585;50.864;4.406;2023-06-22T03:32:32;3.03;;;1.80;;
25731;SDS011;13585;50.864;4.406;2023-06-22T03:34:57;2.63;;;1.90;;
25731;SDS011;13585;50.864;4.406;2023-06-22T03:37:24;3.05;;;2.00;;
25731;SDS011;13585;50.864;4.406;2023-06-22T03:39:50;2.20;;;2.00;;
25731;SDS011;13585;50.864;4.406;2023-06-22T03:42:16;3.25;;;2.22;;
25731;SDS011;13585;50.864;4.406;2023-06-22T03:44:42;2.60;;;1.90;;
25731;SDS011;13585;50.864;4.406;2023-06-22T03:47:08;2.40;;;1.90;;
25731;SDS011;13585;50.864;4.406;2023-06-22T03:49:34;3.50;;;1.83;;
25731;SDS011;13585;50.864;4.406;2023-06-22T03:52:00;3.55;;;2.20;;
25731;SDS011;13585;50.864;4.406;2023-06-22T03:54:27;2.15;;;1.70;;
25731;SDS011;13585;50.864;4.406;2023-06-22T03:56:53;4.07;;;2.00;;
25731;SDS011;13585;50.864;4.406;2023-06-22T03:59:19;3.15;;;2.00;;
25731;SDS011;13585;50.864;4.406;2023-06-22T04:01:44;1.95;;;1.70;;
25731;SDS011;13585;50.864;4.406;2023-06-22T04:04:11;2.42;;;1.92;;
25731;SDS011;13585;50.864;4.406;2023-06-22T04:06:37;2.83;;;1.80;;
25731;SDS011;13585;50.864;4.406;2023-06-22T04:09:03;2.22;;;1.80;;
25731;SDS011;13585;50.864;4.406;2023-06-22T04:11:30;2.80;;;1.95;;
25731;SDS011;13585;50.864;4.406;2023-06-22T04:13:58;3.17;;;2.08;;
25731;SDS011;13585;50.864;4.406;2023-06-22T04:16:24;3.38;;;2.10;;
25731;SDS011;13585;50.864;4.406;2023-06-22T04:18:49;3.65;;;2.33;;
25731;SDS011;13585;50.864;4.406;2023-06-22T04:21:15;3.88;;;1.95;;
25731;SDS011;13585;50.864;4.406;2023-06-22T04:23:40;4.43;;;2.40;;
25731;SDS011;13585;50.864;4.406;2023-06-22T04:26:06;4.28;;;2.30;;
25731;SDS011;13585;50.864;4.406;2023-06-22T04:28:32;4.53;;;2.00;;
25731;SDS011;13585;50.864;4.406;2023-06-22T04:31:00;2.80;;;2.15;;
25731;SDS011;13585;50.864;4.406;2023-06-22T04:33:27;3.60;;;1.98;;
25731;SDS011;13585;50.864;4.406;2023-06-22T04:35:56;4.85;;;2.50;;
25731;SDS011;13585;50.864;4.406;2023-06-22T04:38:23;4.28;;;2.40;;
25731;SDS011;13585;50.864;4.406;2023-06-22T04:40:49;2.60;;;1.85;;
25731;SDS011;13585;50.864;4.406;2023-06-22T04:43:15;2.97;;;2.20;;
25731;SDS011;13585;50.864;4.406;2023-06-22T04:45:41;2.97;;;2.10;;
25731;SDS011;13585;50.864;4.406;2023-06-22T04:48:07;4.95;;;2.45;;
25731;SDS011;13585;50.864;4.406;2023-06-22T04:50:40;3.33;;;2.20;;
25731;SDS011;13585;50.864;4.406;2023-06-22T04:53:06;3.78;;;2.03;;
25731;SDS011;13585;50.864;4.406;2023-06-22T04:55:32;4.90;;;2.20;;
25731;SDS011;13585;50.864;4.406;2023-06-22T04:57:58;2.83;;;2.33;;
25731;SDS011;13585;50.864;4.406;2023-06-22T05:00:31;4.78;;;2.40;;
25731;SDS011;13585;50.864;4.406;2023-06-22T05:02:57;3.30;;;2.40;;
25731;SDS011;13585;50.864;4.406;2023-06-22T05:05:23;3.00;;;2.38;;
25731;SDS011;13585;50.864;4.406;2023-06-22T05:07:49;5.35;;;3.10;;
25731;SDS011;13585;50.864;4.406;2023-06-22T05:10:18;6.07;;;3.13;;
25731;SDS011;13585;50.864;4.406;2023-06-22T05:12:44;4.63;;;2.55;;
25731;SDS011;13585;50.864;4.406;2023-06-22T05:15:11;4.63;;;3.30;;
25731;SDS011;13585;50.864;4.406;2023-06-22T05:17:36;4.63;;;3.40;;
25731;SDS011;13585;50.864;4.406;2023-06-22T05:20:08;6.57;;;3.05;;
25731;SDS011;13585;50.864;4.406;2023-06-22T05:22:34;4.75;;;3.45;;
25731;SDS011;13585;50.864;4.406;2023-06-22T05:25:00;5.75;;;3.05;;
25731;SDS011;13585;50.864;4.406;2023-06-22T05:27:26;6.28;;;3.50;;
25731;SDS011;13585;50.864;4.406;2023-06-22T05:29:51;4.93;;;3.10;;
25731;SDS011;13585;50.864;4.406;2023-06-22T05:32:17;4.18;;;3.30;;
25731;SDS011;13585;50.864;4.406;2023-06-22T05:34:43;3.92;;;2.95;;
25731;SDS011;13585;50.864;4.406;2023-06-22T05:37:09;4.50;;;3.47;;
25731;SDS011;13585;50.864;4.406;2023-06-22T05:39:41;3.78;;;2.70;;
25731;SDS011;13585;50.864;4.406;2023-06-22T05:42:07;5.20;;;3.92;;
25731;SDS011;13585;50.864;4.406;2023-06-22T05:44:36;9.05;;;4.63;;
25731;SDS011;13585;50.864;4.406;2023-06-22T05:49:30;5.55;;;4.30;;
25731;SDS011;13585;50.864;4.406;2023-06-22T05:51:57;8.02;;;4.70;;
25731;SDS011;13585;50.864;4.406;2023-06-22T05:54:39;5.90;;;4.75;;
25731;SDS011;13585;50.864;4.406;2023-06-22T05:57:06;6.72;;;4.65;;
25731;SDS011;13585;50.864;4.406;2023-06-22T05:59:32;9.48;;;4.40;;
25731;SDS011;13585;50.864;4.406;2023-06-22T06:01:58;5.90;;;4.07;;
25731;SDS011;13585;50.864;4.406;2023-06-22T06:04:26;6.68;;;4.55;;
25731;SDS011;13585;50.864;4.406;2023-06-22T06:06:52;7.97;;;4.38;;
25731;SDS011;13585;50.864;4.406;2023-06-22T06:09:17;7.50;;;4.90;;
25731;SDS011;13585;50.864;4.406;2023-06-22T06:11:43;8.57;;;5.32;;
25731;SDS011;13585;50.864;4.406;2023-06-22T06:14:09;8.48;;;5.90;;
25731;SDS011;13585;50.864;4.406;2023-06-22T06:16:34;7.13;;;5.43;;
25731;SDS011;13585;50.864;4.406;2023-06-22T06:19:03;8.18;;;6.10;;
25731;SDS011;13585;50.864;4.406;2023-06-22T06:21:29;9.55;;;5.93;;
25731;SDS011;13585;50.864;4.406;2023-06-22T06:23:54;11.63;;;5.72;;
25731;SDS011;13585;50.864;4.406;2023-06-22T06:26:20;11.75;;;6.25;;
25731;SDS011;13585;50.864;4.406;2023-06-22T06:28:53;14.23;;;6.95;;
25731;SDS011;13585;50.864;4.406;2023-06-22T06:31:19;9.10;;;7.03;;
25731;SDS011;13585;50.864;4.406;2023-06-22T06:33:45;12.40;;;7.72;;
25731;SDS011;13585;50.864;4.406;2023-06-22T06:36:11;11.40;;;7.13;;
25731;SDS011;13585;50.864;4.406;2023-06-22T06:38:37;9.38;;;6.85;;
25731;SDS011;13585;50.864;4.406;2023-06-22T06:41:02;10.88;;;7.05;;
25731;SDS011;13585;50.864;4.406;2023-06-22T06:43:28;9.60;;;6.55;;
25731;SDS011;13585;50.864;4.406;2023-06-22T06:45:53;12.52;;;7.57;;
25731;SDS011;13585;50.864;4.406;2023-06-22T06:48:19;11.75;;;7.13;;
25731;SDS011;13585;50.864;4.406;2023-06-22T06:50:45;13.52;;;6.38;;
25731;SDS011;13585;50.864;4.406;2023-06-22T06:53:10;9.10;;;6.75;;
25731;SDS011;13585;50.864;4.406;2023-06-22T06:55:36;12.05;;;7.50;;
25731;SDS011;13585;50.864;4.406;2023-06-22T06:58:02;10.00;;;6.82;;
25731;SDS011;13585;50.864;4.406;2023-06-22T07:00:32;10.70;;;7.50;;
25731;SDS011;13585;50.864;4.406;2023-06-22T07:02:58;12.40;;;7.20;;
25731;SDS011;13585;50.864;4.406;2023-06-22T07:05:23;8.30;;;7.13;;
25731;SDS011;13585;50.864;4.406;2023-06-22T07:08:04;8.43;;;7.07;;
25731;SDS011;13585;50.864;4.406;2023-06-22T07:10:41;11.50;;;7.37;;
25731;SDS011;13585;50.864;4.406;2023-06-22T07:13:13;11.57;;;7.97;;
25731;SDS011;13585;50.864;4.406;2023-06-22T07:15:44;12.38;;;7.10;;
25731;SDS011;13585;50.864;4.406;2023-06-22T07:28:23;11.35;;;7.47;;
25731;SDS011;13585;50.864;4.406;2023-06-22T07:30:48;8.15;;;7.18;;
25731;SDS011;13585;50.864;4.406;2023-06-22T07:33:21;13.43;;;7.35;;
25731;SDS011;13585;50.864;4.406;2023-06-22T07:35:47;10.38;;;8.18;;
25731;SDS011;13585;50.864;4.406;2023-06-22T07:38:16;12.95;;;8.43;;
25731;SDS011;13585;50.864;4.406;2023-06-22T07:40:41;11.85;;;8.00;;
25731;SDS011;13585;50.864;4.406;2023-06-22T07:43:07;10.93;;;8.20;;
25731;SDS011;13585;50.864;4.406;2023-06-22T07:45:34;10.30;;;8.10;;
25731;SDS011;13585;50.864;4.406;2023-06-22T07:48:00;9.57;;;7.35;;
25731;SDS011;13585;50.864;4.406;2023-06-22T07:50:26;12.48;;;7.38;;
25731;SDS011;13585;50.864;4.406;2023-06-22T07:52:52;9.48;;;7.28;;
25731;SDS011;13585;50.864;4.406;2023-06-22T07:55:17;10.65;;;7.55;;
25731;SDS011;13585;50.864;4.406;2023-06-22T07:57:43;10.75;;;7.07;;
25731;SDS011;13585;50.864;4.406;2023-06-22T08:00:09;11.80;;;7.75;;
25731;SDS011;13585;50.864;4.406;2023-06-22T08:02:45;10.15;;;7.07;;
25731;SDS011;13585;50.864;4.406;2023-06-22T08:05:11;11.88;;;7.80;;
25731;SDS011;13585;50.864;4.406;2023-06-22T08:07:38;11.55;;;6.95;;
25731;SDS011;13585;50.864;4.406;2023-06-22T08:10:05;11.52;;;6.75;;
25731;SDS011;13585;50.864;4.406;2023-06-22T08:12:31;10.25;;;7.20;;
25731;SDS011;13585;50.864;4.406;2023-06-22T08:15:20;9.65;;;7.28;;
25731;SDS011;13585;50.864;4.406;2023-06-22T08:17:55;10.02;;;7.13;;
25731;SDS011;13585;50.864;4.406;2023-06-22T08:20:28;8.73;;;6.97;;
25731;SDS011;13585;50.864;4.406;2023-06-22T08:22:55;11.07;;;7.20;;
25731;SDS011;13585;50.864;4.406;2023-06-22T08:25:22;13.65;;;7.82;;
25731;SDS011;13585;50.864;4.406;2023-06-22T08:27:48;10.48;;;6.95;;
25731;SDS011;13585;50.864;4.406;2023-06-22T08:30:14;11.25;;;8.05;;
25731;SDS011;13585;50.864;4.406;2023-06-22T08:32:40;10.63;;;7.72;;
25731;SDS011;13585;50.864;4.406;2023-06-22T08:35:06;9.70;;;7.45;;
25731;SDS011;13585;50.864;4.406;2023-06-22T08:37:33;8.68;;;7.05;;
25731;SDS011;13585;50.864;4.406;2023-06-22T08:40:00;13.18;;;7.40;;
25731;SDS011;13585;50.864;4.406;2023-06-22T08:42:26;13.20;;;7.50;;
25731;SDS011;13585;50.864;4.406;2023-06-22T08:44:52;10.10;;;7.90;;
25731;SDS011;13585;50.864;4.406;2023-06-22T08:47:18;10.13;;;7.38;;
25731;SDS011;13585;50.864;4.406;2023-06-22T08:49:45;10.32;;;7.85;;
25731;SDS011;13585;50.864;4.406;2023-06-22T08:52:10;10.40;;;7.07;;
25731;SDS011;13585;50.864;4.406;2023-06-22T08:54:36;9.73;;;7.10;;
25731;SDS011;13585;50.864;4.406;2023-06-22T08:57:02;12.65;;;7.50;;
25731;SDS011;13585;50.864;4.406;2023-06-22T08:59:27;11.50;;;7.40;;
25731;SDS011;13585;50.864;4.406;2023-06-22T09:01:53;10.63;;;7.03;;
25731;SDS011;13585;50.864;4.406;2023-06-22T09:04:19;9.05;;;6.68;;
25731;SDS011;13585;50.864;4.406;2023-06-22T09:06:47;8.88;;;6.72;;
25731;SDS011;13585;50.864;4.406;2023-06-22T09:09:13;11.70;;;7.03;;
25731;SDS011;13585;50.864;4.406;2023-06-22T09:11:39;9.02;;;6.80;;
25731;SDS011;13585;50.864;4.406;2023-06-22T09:14:06;7.97;;;6.68;;
25731;SDS011;13585;50.864;4.406;2023-06-22T09:16:32;10.85;;;6.68;;
25731;SDS011;13585;50.864;4.406;2023-06-22T09:18:59;9.05;;;6.30;;
25731;SDS011;13585;50.864;4.406;2023-06-22T09:21:24;9.32;;;6.35;;
25731;SDS011;13585;50.864;4.406;2023-06-22T09:23:50;8.65;;;6.13;;
25731;SDS011;13585;50.864;4.406;2023-06-22T09:26:19;7.18;;;5.97;;
25731;SDS011;13585;50.864;4.406;2023-06-22T09:28:46;10.75;;;6.68;;
25731;SDS011;13585;50.864;4.406;2023-06-22T09:31:23;8.75;;;5.97;;
25731;SDS011;13585;50.864;4.406;2023-06-22T09:33:54;7.72;;;5.70;;
25731;SDS011;13585;50.864;4.406;2023-06-22T09:36:20;9.82;;;6.95;;
25731;SDS011;13585;50.864;4.406;2023-06-22T09:38:47;7.72;;;6.45;;
25731;SDS011;13585;50.864;4.406;2023-06-22T09:41:23;8.07;;;5.95;;
25731;SDS011;13585;50.864;4.406;2023-06-22T09:43:56;9.10;;;5.93;;
25731;SDS011;13585;50.864;4.406;2023-06-22T09:46:24;10.43;;;6.25;;
25731;SDS011;13585;50.864;4.406;2023-06-22T09:48:50;10.35;;;5.88;;
25731;SDS011;13585;50.864;4.406;2023-06-22T09:51:22;8.13;;;5.65;;
25731;SDS011;13585;50.864;4.406;2023-06-22T09:53:49;7.05;;;6.00;;
25731;SDS011;13585;50.864;4.406;2023-06-22T09:56:15;8.93;;;6.55;;
25731;SDS011;13585;50.864;4.406;2023-06-22T09:59:07;11.98;;;6.35;;
25731;SDS011;13585;50.864;4.406;2023-06-22T10:01:33;8.27;;;5.93;;
25731;SDS011;13585;50.864;4.406;2023-06-22T10:03:59;7.75;;;5.68;;
25731;SDS011;13585;50.864;4.406;2023-06-22T10:06:24;10.82;;;5.97;;
25731;SDS011;13585;50.864;4.406;2023-06-22T10:08:50;9.95;;;6.03;;
25731;SDS011;13585;50.864;4.406;2023-06-22T10:11:16;9.88;;;5.60;;
25731;SDS011;13585;50.864;4.406;2023-06-22T10:13:42;8.57;;;5.95;;
25731;SDS011;13585;50.864;4.406;2023-06-22T10:16:08;10.65;;;6.20;;
25731;SDS011;13585;50.864;4.406;2023-06-22T10:18:33;9.48;;;6.53;;
25731;SDS011;13585;50.864;4.406;2023-06-22T10:20:59;9.05;;;5.97;;
25731;SDS011;13585;50.864;4.406;2023-06-22T10:23:25;9.13;;;6.13;;
25731;SDS011;13585;50.864;4.406;2023-06-22T10:25:51;6.07;;;4.15;;
25731;SDS011;13585;50.864;4.406;2023-06-22T10:28:16;6.30;;;4.13;;
25731;SDS011;13585;50.864;4.406;2023-06-22T10:30:42;6.60;;;4.28;;
25731;SDS011;13585;50.864;4.406;2023-06-22T10:33:08;6.45;;;4.88;;
25731;SDS011;13585;50.864;4.406;2023-06-22T10:35:35;7.07;;;4.13;;
25731;SDS011;13585;50.864;4.406;2023-06-22T10:38:02;5.82;;;3.90;;
25731;SDS011;13585;50.864;4.406;2023-06-22T10:40:28;7.60;;;4.18;;
25731;SDS011;13585;50.864;4.406;2023-06-22T10:42:54;5.75;;;4.32;;
25731;SDS011;13585;50.864;4.406;2023-06-22T10:45:20;8.18;;;4.28;;
25731;SDS011;13585;50.864;4.406;2023-06-22T10:47:45;5.60;;;4.10;;
25731;SDS011;13585;50.864;4.406;2023-06-22T10:50:11;4.90;;;3.55;;
25731;SDS011;13585;50.864;4.406;2023-06-22T10:52:37;6.47;;;3.20;;
25731;SDS011;13585;50.864;4.406;2023-06-22T10:55:03;6.88;;;3.42;;
25731;SDS011;13585;50.864;4.406;2023-06-22T10:57:29;4.75;;;3.22;;
25731;SDS011;13585;50.864;4.406;2023-06-22T10:59:54;4.22;;;3.38;;
25731;SDS011;13585;50.864;4.406;2023-06-22T11:02:20;4.22;;;3.05;;
25731;SDS011;13585;50.864;4.406;2023-06-22T11:04:46;4.05;;;3.00;;
25731;SDS011;13585;50.864;4.406;2023-06-22T11:07:12;6.80;;;3.30;;
25731;SDS011;13585;50.864;4.406;2023-06-22T11:09:38;4.25;;;3.17;;
25731;SDS011;13585;50.864;4.406;2023-06-22T11:12:04;5.60;;;3.10;;
25731;SDS011;13585;50.864;4.406;2023-06-22T11:14:33;4.32;;;3.10;;
25731;SDS011;13585;50.864;4.406;2023-06-22T11:16:59;3.67;;;2.95;;
25731;SDS011;13585;50.864;4.406;2023-06-22T11:19:24;3.88;;;2.75;;
25731;SDS011;13585;50.864;4.406;2023-06-22T11:21:50;4.25;;;2.83;;
25731;SDS011;13585;50.864;4.406;2023-06-22T11:24:16;3.58;;;2.50;;
25731;SDS011;13585;50.864;4.406;2023-06-22T11:26:42;3.85;;;2.42;;
25731;SDS011;13585;50.864;4.406;2023-06-22T11:29:08;4.97;;;2.85;;
25731;SDS011;13585;50.864;4.406;2023-06-22T11:31:36;4.53;;;2.70;;
25731;SDS011;13585;50.864;4.406;2023-06-22T11:34:03;5.50;;;3.00;;
25731;SDS011;13585;50.864;4.406;2023-06-22T11:36:29;3.70;;;2.30;;
25731;SDS011;13585;50.864;4.406;2023-06-22T11:38:57;4.38;;;3.05;;
25731;SDS011;13585;50.864;4.406;2023-06-22T11:41:23;4.70;;;2.75;;
25731;SDS011;13585;50.864;4.406;2023-06-22T11:43:49;3.60;;;2.45;;
25731;SDS011;13585;50.864;4.406;2023-06-22T11:46:14;5.07;;;2.83;;
25731;SDS011;13585;50.864;4.406;2023-06-22T11:48:40;3.85;;;2.42;;
25731;SDS011;13585;50.864;4.406;2023-06-22T11:51:05;5.18;;;2.45;;
25731;SDS011;13585;50.864;4.406;2023-06-22T11:53:33;4.03;;;2.72;;
25731;SDS011;13585;50.864;4.406;2023-06-22T11:55:59;3.55;;;2.30;;
25731;SDS011;13585;50.864;4.406;2023-06-22T11:59:10;3.78;;;2.45;;
25731;SDS011;13585;50.864;4.406;2023-06-22T12:01:42;4.22;;;2.53;;
25731;SDS011;13585;50.864;4.406;2023-06-22T12:07:22;3.83;;;2.83;;
25731;SDS011;13585;50.864;4.406;2023-06-22T12:10:06;3.55;;;2.58;;
25731;SDS011;13585;50.864;4.406;2023-06-22T12:15:20;4.00;;;2.78;;
25731;SDS011;13585;50.864;4.406;2023-06-22T12:18:00;3.72;;;2.45;;
25731;SDS011;13585;50.864;4.406;2023-06-22T12:20:26;4.10;;;2.87;;
25731;SDS011;13585;50.864;4.406;2023-06-22T12:23:18;4.78;;;2.50;;
25731;SDS011;13585;50.864;4.406;2023-06-22T12:25:47;4.78;;;2.70;;
25731;SDS011;13585;50.864;4.406;2023-06-22T12:28:16;3.05;;;2.30;;
25731;SDS011;13585;50.864;4.406;2023-06-22T12:30:42;3.60;;;2.47;;
25731;SDS011;13585;50.864;4.406;2023-06-22T12:33:19;3.65;;;2.67;;
25731;SDS011;13585;50.864;4.406;2023-06-22T12:35:57;3.55;;;2.50;;
25731;SDS011;13585;50.864;4.406;2023-06-22T12:38:23;4.13;;;2.83;;
25731;SDS011;13585;50.864;4.406;2023-06-22T12:41:17;3.33;;;2.22;;
25731;SDS011;13585;50.864;4.406;2023-06-22T12:46:20;3.78;;;2.47;;
25731;SDS011;13585;50.864;4.406;2023-06-22T12:51:39;3.85;;;2.47;;
25731;SDS011;13585;50.864;4.406;2023-06-22T12:57:13;3.83;;;2.30;;
25731;SDS011;13585;50.864;4.406;2023-06-22T12:59:38;3.90;;;2.67;;
25731;SDS011;13585;50.864;4.406;2023-06-22T13:02:04;3.70;;;3.17;;
25731;SDS011;13585;50.864;4.406;2023-06-22T13:04:30;4.30;;;2.50;;
25731;SDS011;13585;50.864;4.406;2023-06-22T13:06:56;3.67;;;2.67;;
25731;SDS011;13585;50.864;4.406;2023-06-22T13:09:22;8.85;;;2.88;;
25731;SDS011;13585;50.864;4.406;2023-06-22T13:11:47;5.68;;;3.20;;
25731;SDS011;13585;50.864;4.406;2023-06-22T13:14:13;4.45;;;3.22;;
25731;SDS011;13585;50.864;4.406;2023-06-22T13:16:41;4.63;;;2.90;;
25731;SDS011;13585;50.864;4.406;2023-06-22T13:19:06;5.53;;;2.78;;
25731;SDS011;13585;50.864;4.406;2023-06-22T13:21:32;4.82;;;2.60;;
25731;SDS011;13585;50.864;4.406;2023-06-22T13:23:59;8.77;;;3.28;;
25731;SDS011;13585;50.864;4.406;2023-06-22T13:26:24;9.23;;;3.42;;
25731;SDS011;13585;50.864;4.406;2023-06-22T13:28:50;4.03;;;3.13;;
25731;SDS011;13585;50.864;4.406;2023-06-22T13:31:15;5.68;;;3.15;;
25731;SDS011;13585;50.864;4.406;2023-06-22T13:33:44;6.47;;;3.28;;
25731;SDS011;13585;50.864;4.406;2023-06-22T13:36:12;5.20;;;3.00;;
25731;SDS011;13585;50.864;4.406;2023-06-22T13:38:38;4.82;;;3.80;;
25731;SDS011;13585;50.864;4.406;2023-06-22T13:46:34;7.75;;;3.40;;
25731;SDS011;13585;50.864;4.406;2023-06-22T13:51:50;5.20;;;3.05;;
25731;SDS011;13585;50.864;4.406;2023-06-22T13:54:16;6.00;;;3.00;;
25731;SDS011;13585;50.864;4.406;2023-06-22T13:56:42;4.22;;;2.83;;
25731;SDS011;13585;50.864;4.406;2023-06-22T13:59:07;6.20;;;2.80;;
25731;SDS011;13585;50.864;4.406;2023-06-22T14:01:35;4.03;;;2.55;;
25731;SDS011;13585;50.864;4.406;2023-06-22T14:04:01;4.43;;;3.05;;
25731;SDS011;13585;50.864;4.406;2023-06-22T14:06:29;4.38;;;2.40;;
25731;SDS011;13585;50.864;4.406;2023-06-22T14:08:55;4.60;;;2.40;;
25731;SDS011;13585;50.864;4.406;2023-06-22T14:11:21;6.15;;;2.75;;
25731;SDS011;13585;50.864;4.406;2023-06-22T14:13:46;6.18;;;2.95;;
25731;SDS011;13585;50.864;4.406;2023-06-22T14:16:12;4.35;;;2.80;;
25731;SDS011;13585;50.864;4.406;2023-06-22T14:18:38;5.00;;;2.78;;
25731;SDS011;13585;50.864;4.406;2023-06-22T14:21:04;4.70;;;3.05;;
25731;SDS011;13585;50.864;4.406;2023-06-22T14:23:29;7.55;;;3.65;;
25731;SDS011;13585;50.864;4.406;2023-06-22T14:25:55;4.05;;;2.67;;
25731;SDS011;13585;50.864;4.406;2023-06-22T14:28:20;5.38;;;2.80;;
25731;SDS011;13585;50.864;4.406;2023-06-22T14:30:46;6.30;;;3.00;;
25731;SDS011;13585;50.864;4.406;2023-06-22T14:33:12;3.45;;;2.63;;
25731;SDS011;13585;50.864;4.406;2023-06-22T14:35:38;4.80;;;2.60;;
25731;SDS011;13585;50.864;4.406;2023-06-22T14:38:04;5.57;;;2.90;;
25731;SDS011;13585;50.864;4.406;2023-06-22T14:40:29;4.53;;;2.92;;
25731;SDS011;13585;50.864;4.406;2023-06-22T14:42:55;5.47;;;2.80;;
25731;SDS011;13585;50.864;4.406;2023-06-22T14:45:22;3.78;;;2.60;;
25731;SDS011;13585;50.864;4.406;2023-06-22T14:47:48;4.40;;;2.90;;
25731;SDS011;13585;50.864;4.406;2023-06-22T14:50:13;4.43;;;2.95;;
25731;SDS011;13585;50.864;4.406;2023-06-22T14:52:39;3.58;;;2.78;;
25731;SDS011;13585;50.864;4.406;2023-06-22T14:55:05;5.30;;;2.70;;
25731;SDS011;13585;50.864;4.406;2023-06-22T14:57:31;3.08;;;2.80;;
25731;SDS011;13585;50.864;4.406;2023-06-22T14:59:56;3.47;;;2.75;;
25731;SDS011;13585;50.864;4.406;2023-06-22T15:02:22;6.20;;;3.20;;
25731;SDS011;13585;50.864;4.406;2023-06-22T15:04:47;4.80;;;2.80;;
25731;SDS011;13585;50.864;4.406;2023-06-22T15:07:14;3.53;;;2.83;;
25731;SDS011;13585;50.864;4.406;2023-06-22T15:09:39;3.95;;;2.97;;
25731;SDS011;13585;50.864;4.406;2023-06-22T15:12:07;3.40;;;2.90;;
25731;SDS011;13585;50.864;4.406;2023-06-22T15:14:36;7.40;;;3.13;;
25731;SDS011;13585;50.864;4.406;2023-06-22T15:17:20;4.40;;;2.60;;
25731;SDS011;13585;50.864;4.406;2023-06-22T15:19:52;5.13;;;2.83;;
25731;SDS011;13585;50.864;4.406;2023-06-22T15:22:18;5.93;;;3.03;;
25731;SDS011;13585;50.864;4.406;2023-06-22T15:24:44;6.95;;;2.83;;
25731;SDS011;13585;50.864;4.406;2023-06-22T15:27:12;2.83;;;2.53;;